Otisco Valley, New York
Current Conditions -  °F | °C
As of 4:47 PM on Wednesday 26 Nov 2014 (Local Time) from KSYR Reporting Station
Light Snow Light Snow  
Wind Chill: 25°   Ceiling: 600
Heat Index: 32°   Visibility: 1mi
Dew Point: 30°   Wind: 8mph
Humidity: 92%   Direction: 340°NNW
Pressure: 30.08"   Gusts: NA
Location:  42.889°N, 76.2819°W
Report Text: KSYR 262147Z 34007KT 1SM R28/5500V6000FT -SN BR BKN006 OVC012 00/M01 A3008 RMK AO2 P0003 T00001011
Loading
Personal Weather Stations






























Interactive Weather Map New forecast layout! Learn more

10-Day Weather Forecast

Advertisements
Track Severe Weather on mobile